createdAt,value
2019-03-15T00:01:35.608Z,3.30
2019-03-15T00:04:03.914Z,3.20
2019-03-15T00:06:32.271Z,3.30
2019-03-15T00:09:00.660Z,3.30
2019-03-15T00:11:29.419Z,3.20
2019-03-15T00:13:58.098Z,3.20
2019-03-15T00:16:26.476Z,3.20
2019-03-15T00:18:54.789Z,3.30
2019-03-15T00:21:23.142Z,3.30
2019-03-15T00:23:51.602Z,3.30
2019-03-15T00:26:19.979Z,3.30
2019-03-15T00:28:48.330Z,3.30
2019-03-15T00:31:16.732Z,3.30
2019-03-15T00:33:45.048Z,3.30
2019-03-15T00:36:13.412Z,3.30
2019-03-15T00:38:41.812Z,3.30
2019-03-15T00:41:11.023Z,3.30
2019-03-15T00:43:39.507Z,3.30
2019-03-15T00:46:08.270Z,3.30
2019-03-15T00:48:36.610Z,3.40
2019-03-15T00:51:04.983Z,3.40
2019-03-15T00:53:33.387Z,3.40
2019-03-15T00:56:01.781Z,3.40
2019-03-15T00:58:30.132Z,3.30
2019-03-15T01:00:58.593Z,3.30
2019-03-15T01:03:27.178Z,3.30
2019-03-15T01:05:55.483Z,3.30
2019-03-15T01:08:23.890Z,3.30
2019-03-15T01:10:52.274Z,3.30
2019-03-15T01:13:20.655Z,3.20
2019-03-15T01:15:49.051Z,3.30
2019-03-15T01:18:18.431Z,3.30
2019-03-15T01:20:47.293Z,3.30
2019-03-15T01:23:15.701Z,3.30
2019-03-15T01:25:44.054Z,3.30
2019-03-15T01:28:12.416Z,3.30
2019-03-15T01:30:40.848Z,3.30
2019-03-15T01:33:09.195Z,3.40
2019-03-15T01:35:37.558Z,3.40
2019-03-15T01:38:05.958Z,3.40
2019-03-15T01:40:34.271Z,3.40
2019-03-15T01:43:02.619Z,3.40
2019-03-15T01:45:31.329Z,3.40
2019-03-15T01:47:59.683Z,3.40
2019-03-15T01:50:27.977Z,3.40
2019-03-15T01:52:56.403Z,3.40
2019-03-15T01:55:24.755Z,3.50
2019-03-15T01:57:53.049Z,3.40
2019-03-15T02:00:21.513Z,3.40
2019-03-15T02:02:49.854Z,3.50
2019-03-15T02:05:18.158Z,3.50
2019-03-15T02:07:46.579Z,3.50
2019-03-15T02:10:14.926Z,3.50
2019-03-15T02:12:43.272Z,3.50
2019-03-15T02:15:12.376Z,3.50
2019-03-15T02:17:40.764Z,3.40
2019-03-15T02:20:09.647Z,3.50
2019-03-15T02:22:38.840Z,3.50
2019-03-15T02:25:07.126Z,3.50
2019-03-15T02:27:35.513Z,3.50
2019-03-15T02:30:05.639Z,3.40
2019-03-15T02:32:34.023Z,3.50
2019-03-15T02:35:02.401Z,3.50
2019-03-15T02:37:30.822Z,3.60
2019-03-15T02:39:59.201Z,3.60
2019-03-15T02:42:27.586Z,3.60
2019-03-15T02:44:55.969Z,3.60
2019-03-15T02:47:24.356Z,3.60
2019-03-15T02:49:52.823Z,3.60
2019-03-15T02:52:21.675Z,3.60
2019-03-15T02:54:50.058Z,3.70
2019-03-15T02:57:18.435Z,3.70
2019-03-15T02:59:47.431Z,3.60
2019-03-15T03:02:16.037Z,3.70
2019-03-15T03:04:44.428Z,3.70
2019-03-15T03:07:12.821Z,3.60
2019-03-15T03:09:41.191Z,3.60
2019-03-15T03:12:09.548Z,3.60
2019-03-15T03:14:37.916Z,3.60
2019-03-15T03:17:06.289Z,3.60
2019-03-15T03:19:34.679Z,3.60
2019-03-15T03:22:03.051Z,3.60
2019-03-15T03:24:31.673Z,3.60
2019-03-15T03:27:00.045Z,3.60
2019-03-15T03:29:28.460Z,3.60
2019-03-15T03:31:56.816Z,3.60
2019-03-15T03:34:25.173Z,3.60
2019-03-15T03:36:57.640Z,3.70
2019-03-15T03:39:23.530Z,3.60
2019-03-15T03:41:51.879Z,3.60
2019-03-15T03:44:20.224Z,3.60
2019-03-15T03:46:48.575Z,3.60
2019-03-15T03:49:16.883Z,3.60
2019-03-15T03:51:45.263Z,3.60
2019-03-15T03:54:13.572Z,3.70
2019-03-15T03:56:41.959Z,3.70
2019-03-15T03:59:10.439Z,3.80
2019-03-15T04:01:38.857Z,3.80
2019-03-15T04:04:07.171Z,3.70
2019-03-15T04:06:35.510Z,3.70
2019-03-15T04:09:05.364Z,3.80
2019-03-15T04:11:33.742Z,3.80
2019-03-15T04:14:02.228Z,3.80
2019-03-15T04:16:30.680Z,3.90
2019-03-15T04:18:59.010Z,3.90
2019-03-15T04:21:27.369Z,3.90
2019-03-15T04:23:55.749Z,3.90
2019-03-15T04:26:26.471Z,3.90
2019-03-15T04:28:56.943Z,3.90
2019-03-15T04:31:24.844Z,3.90
2019-03-15T04:33:53.197Z,4.00
2019-03-15T04:36:21.609Z,4.00
2019-03-15T04:38:49.953Z,4.00
2019-03-15T04:41:18.234Z,4.00
2019-03-15T04:43:46.539Z,4.00
2019-03-15T04:46:14.849Z,4.00
2019-03-15T04:48:43.229Z,4.00
2019-03-15T04:51:11.634Z,4.00
2019-03-15T04:53:40.008Z,4.00
2019-03-15T04:56:08.360Z,4.00
2019-03-15T04:58:36.670Z,4.10
2019-03-15T05:01:05.063Z,4.10
2019-03-15T05:03:33.412Z,4.10
2019-03-15T05:06:04.037Z,4.10
2019-03-15T05:08:32.497Z,4.10
2019-03-15T05:11:00.849Z,4.10
2019-03-15T05:13:29.279Z,4.10
2019-03-15T05:15:57.634Z,4.20
2019-03-15T05:18:26.014Z,4.10
2019-03-15T05:20:55.108Z,4.20
2019-03-15T05:23:23.460Z,4.20
2019-03-15T05:25:51.838Z,4.20
2019-03-15T05:28:20.217Z,4.20
2019-03-15T05:30:48.567Z,4.20
2019-03-15T05:33:16.876Z,4.30
2019-03-15T05:35:45.267Z,4.30
2019-03-15T05:38:13.559Z,4.30
2019-03-15T05:40:41.902Z,4.40
2019-03-15T05:43:10.234Z,4.40
2019-03-15T05:45:38.597Z,4.50
2019-03-15T05:48:06.934Z,4.50
2019-03-15T05:50:35.249Z,4.60
2019-03-15T05:53:03.536Z,4.70
2019-03-15T05:55:31.911Z,4.70
2019-03-15T05:58:00.312Z,4.70
2019-03-15T06:00:28.682Z,4.70
2019-03-15T06:02:57.111Z,4.70
2019-03-15T06:05:25.444Z,4.70
2019-03-15T06:07:53.756Z,4.80
2019-03-15T06:10:22.102Z,4.70
2019-03-15T06:12:50.463Z,4.80
2019-03-15T06:15:18.859Z,4.80
2019-03-15T06:17:47.203Z,4.80
2019-03-15T06:20:15.615Z,4.80
2019-03-15T06:22:43.974Z,4.80
2019-03-15T06:25:12.367Z,4.90
2019-03-15T06:27:40.736Z,4.90
2019-03-15T06:30:13.587Z,5.00
2019-03-15T06:32:41.982Z,5.00
2019-03-15T06:35:10.396Z,5.10
2019-03-15T06:37:38.741Z,5.10
2019-03-15T06:40:08.931Z,5.10
2019-03-15T06:42:37.269Z,5.20
2019-03-15T06:45:11.285Z,5.20
2019-03-15T06:47:39.637Z,5.30
2019-03-15T06:50:08.722Z,5.20
2019-03-15T06:52:36.999Z,5.20
2019-03-15T06:55:07.463Z,5.20
2019-03-15T06:57:35.869Z,5.10
2019-03-15T07:00:06.689Z,5.00
2019-03-15T07:02:35.032Z,5.00
2019-03-15T07:05:03.802Z,5.00
2019-03-15T07:07:32.184Z,4.90
2019-03-15T07:10:00.539Z,4.80
2019-03-15T07:12:28.854Z,4.80
2019-03-15T07:14:57.240Z,4.80
2019-03-15T07:17:25.583Z,4.70
2019-03-15T07:19:54.563Z,4.70
2019-03-15T07:22:23.211Z,4.70
2019-03-15T07:24:51.598Z,4.70
2019-03-15T07:27:19.983Z,4.70
2019-03-15T07:29:48.372Z,4.70
2019-03-15T07:32:17.694Z,4.70
2019-03-15T07:34:46.085Z,4.80
2019-03-15T07:37:15.359Z,4.80
2019-03-15T07:39:44.302Z,4.80
2019-03-15T07:42:12.662Z,4.80
2019-03-15T07:44:41.015Z,4.80
2019-03-15T07:47:09.413Z,4.80
2019-03-15T07:49:37.801Z,4.80
2019-03-15T07:52:06.189Z,4.80
2019-03-15T07:54:38.245Z,4.90
2019-03-15T07:57:04.626Z,4.80
2019-03-15T07:59:33.013Z,4.80
2019-03-15T08:02:01.508Z,4.70
2019-03-15T08:04:29.898Z,4.80
2019-03-15T08:06:58.326Z,4.80
2019-03-15T08:09:27.074Z,4.80
2019-03-15T08:11:55.426Z,4.70
2019-03-15T08:14:23.776Z,4.70
2019-03-15T08:16:52.121Z,4.70
2019-03-15T08:19:20.471Z,4.70
2019-03-15T08:21:48.785Z,4.80
2019-03-15T08:24:17.511Z,4.80
2019-03-15T08:26:45.911Z,4.80
2019-03-15T08:29:14.288Z,4.80
2019-03-15T08:31:42.675Z,4.80
2019-03-15T08:34:11.106Z,4.90
2019-03-15T08:36:39.390Z,5.00
2019-03-15T08:39:07.720Z,4.90
2019-03-15T08:41:48.334Z,4.90
2019-03-15T08:44:16.760Z,4.90
2019-03-15T08:46:45.150Z,4.90
2019-03-15T08:49:13.533Z,5.00
2019-03-15T08:51:41.954Z,5.00
2019-03-15T08:54:11.935Z,5.10
2019-03-15T08:56:40.251Z,5.20
2019-03-15T08:59:08.635Z,5.30
2019-03-15T09:01:37.133Z,5.10
2019-03-15T09:04:05.513Z,5.10
2019-03-15T09:06:33.971Z,5.10
2019-03-15T09:09:02.343Z,5.00
2019-03-15T09:11:30.777Z,5.10
2019-03-15T09:13:59.235Z,5.10
2019-03-15T09:16:27.582Z,5.20
2019-03-15T09:18:56.003Z,5.20
2019-03-15T09:21:24.360Z,5.20
2019-03-15T09:23:52.744Z,5.30
2019-03-15T09:26:21.105Z,5.30
2019-03-15T09:28:49.492Z,5.40
2019-03-15T09:31:17.779Z,5.30
2019-03-15T09:33:46.083Z,5.30
2019-03-15T09:36:14.471Z,5.40
2019-03-15T09:38:42.865Z,5.40
2019-03-15T09:41:11.231Z,5.30
2019-03-15T09:43:39.627Z,5.30
2019-03-15T09:46:08.007Z,5.40
2019-03-15T09:48:36.401Z,5.60
2019-03-15T09:51:04.812Z,5.70
2019-03-15T09:53:33.192Z,5.70
2019-03-15T09:56:01.600Z,5.70
2019-03-15T09:58:30.009Z,5.70
2019-03-15T10:00:59.961Z,5.80
2019-03-15T10:03:28.471Z,6.00
2019-03-15T10:05:56.900Z,6.20
2019-03-15T10:08:25.246Z,6.30
2019-03-15T10:10:53.617Z,6.20
2019-03-15T10:13:22.077Z,6.30
2019-03-15T10:15:50.553Z,6.30
2019-03-15T10:18:19.036Z,6.30
2019-03-15T10:20:47.510Z,6.30
2019-03-15T10:23:15.883Z,6.30
2019-03-15T10:25:47.552Z,6.40
2019-03-15T10:28:14.317Z,6.30
2019-03-15T10:30:42.691Z,6.20
2019-03-15T10:33:11.059Z,6.30
2019-03-15T10:35:39.374Z,6.30
2019-03-15T10:38:07.763Z,6.30
2019-03-15T10:40:36.152Z,6.30
2019-03-15T10:43:04.544Z,6.30
2019-03-15T10:45:32.949Z,6.40
2019-03-15T10:48:01.324Z,6.60
2019-03-15T10:50:29.745Z,6.50
2019-03-15T10:52:58.093Z,6.60
2019-03-15T10:55:26.443Z,6.60
2019-03-15T10:57:54.847Z,6.50
2019-03-15T11:00:23.259Z,6.70
2019-03-15T11:02:51.743Z,6.70
2019-03-15T11:05:21.742Z,6.80
2019-03-15T11:07:50.363Z,6.70
2019-03-15T11:10:19.012Z,6.70
2019-03-15T11:12:47.736Z,6.70
2019-03-15T11:15:16.719Z,6.80
2019-03-15T11:17:45.076Z,6.70
2019-03-15T11:20:13.752Z,6.70
2019-03-15T11:22:42.125Z,6.60
2019-03-15T11:25:11.547Z,6.70
2019-03-15T11:27:39.938Z,7.00
2019-03-15T11:30:11.604Z,7.20
2019-03-15T11:32:39.979Z,7.50
2019-03-15T11:35:09.340Z,7.80
2019-03-15T11:37:37.713Z,8.20
2019-03-15T11:40:19.138Z,8.60
2019-03-15T11:42:46.524Z,9.00
2019-03-15T11:45:14.993Z,9.00
2019-03-15T11:48:02.537Z,8.70
2019-03-15T11:50:17.721Z,8.60
2019-03-15T11:52:46.073Z,8.60
2019-03-15T11:55:14.849Z,8.30
2019-03-15T11:57:45.018Z,8.10
2019-03-15T12:00:15.521Z,8.20
2019-03-15T12:02:43.897Z,8.20
2019-03-15T12:05:12.251Z,8.70
2019-03-15T12:07:40.549Z,8.90
2019-03-15T12:10:11.347Z,9.10
2019-03-15T12:12:39.803Z,9.10
2019-03-15T12:15:12.809Z,8.80
2019-03-15T12:17:41.660Z,8.60
2019-03-15T12:20:11.144Z,8.40
2019-03-15T12:22:40.541Z,8.40
2019-03-15T12:25:14.905Z,8.70
2019-03-15T12:27:43.252Z,9.10
2019-03-15T12:30:13.966Z,9.40
2019-03-15T12:32:43.611Z,9.60
2019-03-15T12:35:13.114Z,9.80
2019-03-15T12:37:41.458Z,9.70
2019-03-15T12:40:12.447Z,9.40
2019-03-15T12:42:40.850Z,9.20
2019-03-15T12:45:10.647Z,9.10
2019-03-15T12:47:39.038Z,8.90
2019-03-15T12:50:11.530Z,8.70
2019-03-15T12:52:47.162Z,8.70
2019-03-15T12:55:13.984Z,8.70
2019-03-15T12:57:42.284Z,8.50
2019-03-15T13:00:17.771Z,8.30
2019-03-15T13:02:46.085Z,7.90
2019-03-15T13:05:14.464Z,7.60
2019-03-15T13:07:42.935Z,7.60
2019-03-15T13:10:21.186Z,7.60
2019-03-15T13:12:49.563Z,7.70
2019-03-15T13:15:17.935Z,8.00
2019-03-15T13:17:46.318Z,8.10
2019-03-15T13:20:15.879Z,8.20
2019-03-15T13:22:44.328Z,8.30
2019-03-15T13:25:13.171Z,8.40
2019-03-15T13:27:41.596Z,8.40
2019-03-15T13:30:11.567Z,8.60
2019-03-15T13:32:39.844Z,8.80
2019-03-15T13:35:08.332Z,9.20
2019-03-15T13:37:36.752Z,9.40
2019-03-15T13:40:08.392Z,9.30
2019-03-15T13:42:36.783Z,9.30
2019-03-15T13:45:08.450Z,9.30
2019-03-15T13:47:36.811Z,9.10
2019-03-15T13:50:11.565Z,8.70
2019-03-15T13:52:39.940Z,8.60
2019-03-15T13:55:08.315Z,8.60
2019-03-15T13:57:36.718Z,8.60
2019-03-15T14:00:08.356Z,8.40
2019-03-15T14:02:36.745Z,8.40
2019-03-15T14:05:05.763Z,8.20
2019-03-15T14:07:34.095Z,8.00
2019-03-15T14:10:04.119Z,7.50
2019-03-15T14:12:32.477Z,6.80
2019-03-15T14:15:00.818Z,6.40
2019-03-15T14:17:29.247Z,6.30
2019-03-15T14:19:58.063Z,6.40
2019-03-15T14:22:26.412Z,6.80
2019-03-15T14:24:54.796Z,7.60
2019-03-15T14:27:36.671Z,8.30
2019-03-15T14:29:53.208Z,8.70
2019-03-15T14:32:21.555Z,9.00
2019-03-15T14:34:49.859Z,9.10
2019-03-15T14:37:18.169Z,9.50
2019-03-15T14:39:46.540Z,9.30
2019-03-15T14:42:14.926Z,8.90
2019-03-15T14:44:43.535Z,8.30
2019-03-15T14:47:11.989Z,7.90
2019-03-15T14:49:41.754Z,7.70
2019-03-15T14:52:10.098Z,7.80
2019-03-15T14:54:38.446Z,7.80
2019-03-15T14:57:06.795Z,7.80
2019-03-15T14:59:35.372Z,8.10
2019-03-15T15:02:03.695Z,8.50
2019-03-15T15:04:32.116Z,8.70
2019-03-15T15:07:00.587Z,8.90
2019-03-15T15:09:28.939Z,9.00
2019-03-15T15:11:57.275Z,9.00
2019-03-15T15:14:25.661Z,8.80
2019-03-15T15:16:54.045Z,8.60
2019-03-15T15:19:22.994Z,8.30
2019-03-15T15:21:52.968Z,7.90
2019-03-15T15:24:21.361Z,7.70
2019-03-15T15:26:49.760Z,7.60
2019-03-15T15:29:18.065Z,7.50
2019-03-15T15:31:46.453Z,7.50
2019-03-15T15:34:14.843Z,7.40
2019-03-15T15:36:43.184Z,7.40
2019-03-15T15:39:11.550Z,7.30
2019-03-15T15:41:39.932Z,7.30
2019-03-15T15:44:08.307Z,7.30
2019-03-15T15:46:36.696Z,7.30
2019-03-15T15:49:05.097Z,7.20
2019-03-15T15:51:35.053Z,7.30
2019-03-15T15:54:03.448Z,7.20
2019-03-15T15:56:31.863Z,7.20
2019-03-15T15:59:02.923Z,7.10
2019-03-15T16:01:30.257Z,7.10
2019-03-15T16:03:58.677Z,7.00
2019-03-15T16:06:27.019Z,6.90
2019-03-15T16:08:55.409Z,6.90
2019-03-15T16:11:23.848Z,6.90
2019-03-15T16:13:52.223Z,6.90
2019-03-15T16:16:20.567Z,6.90
2019-03-15T16:18:49.027Z,6.70
2019-03-15T16:21:17.707Z,6.70
2019-03-15T16:23:46.059Z,6.70
2019-03-15T16:26:14.394Z,6.70
2019-03-15T16:28:42.760Z,6.70
2019-03-15T16:31:11.123Z,6.60
2019-03-15T16:33:39.441Z,6.60
2019-03-15T16:36:07.771Z,6.60
2019-03-15T16:38:36.126Z,6.50
2019-03-15T16:41:04.540Z,6.50
2019-03-15T16:43:32.917Z,6.50
2019-03-15T16:46:01.275Z,6.50
2019-03-15T16:48:29.738Z,6.40
2019-03-15T16:50:58.094Z,6.40
2019-03-15T16:53:27.809Z,6.40
2019-03-15T16:55:56.192Z,6.40
2019-03-15T16:58:24.497Z,6.40
2019-03-15T17:00:52.951Z,6.40
2019-03-15T17:03:24.256Z,6.40
2019-03-15T17:05:52.651Z,6.40
2019-03-15T17:08:21.295Z,6.30
2019-03-15T17:10:50.523Z,6.20
2019-03-15T17:13:18.900Z,6.20
2019-03-15T17:15:47.250Z,6.10
2019-03-15T17:18:15.649Z,6.10
2019-03-15T17:20:43.970Z,6.10
2019-03-15T17:23:12.430Z,6.00
2019-03-15T17:25:41.725Z,6.00
2019-03-15T17:28:10.106Z,6.00
2019-03-15T17:30:38.607Z,6.00
2019-03-15T17:33:06.979Z,6.00
2019-03-15T17:35:35.292Z,6.00
2019-03-15T17:38:03.706Z,5.90
2019-03-15T17:40:32.075Z,5.90
2019-03-15T17:43:00.454Z,5.80
2019-03-15T17:45:28.838Z,5.80
2019-03-15T17:47:57.231Z,5.90
2019-03-15T17:50:28.561Z,5.80
2019-03-15T17:52:56.905Z,5.80
2019-03-15T17:55:25.319Z,5.80
2019-03-15T17:57:53.695Z,5.80
2019-03-15T18:00:26.983Z,5.80
2019-03-15T18:02:55.653Z,5.80
2019-03-15T18:05:24.060Z,5.80
2019-03-15T18:07:52.411Z,5.80
2019-03-15T18:10:20.760Z,5.80
2019-03-15T18:12:49.047Z,5.80
2019-03-15T18:15:17.437Z,5.80
2019-03-15T18:17:45.852Z,5.80
2019-03-15T18:20:14.217Z,5.80
2019-03-15T18:22:42.570Z,5.70
2019-03-15T18:25:11.433Z,5.70
2019-03-15T18:27:39.786Z,5.70
2019-03-15T18:30:13.443Z,5.60
2019-03-15T18:32:45.349Z,5.60
2019-03-15T18:35:13.053Z,5.50
2019-03-15T18:37:41.407Z,5.60
2019-03-15T18:40:11.908Z,5.50
2019-03-15T18:42:40.466Z,5.50
2019-03-15T18:45:13.480Z,5.50
2019-03-15T18:47:41.896Z,5.40
2019-03-15T18:50:27.808Z,5.40
2019-03-15T18:52:56.198Z,5.40
2019-03-15T18:55:24.604Z,5.40
2019-03-15T18:57:52.963Z,5.40
2019-03-15T19:00:23.132Z,5.30
2019-03-15T19:02:51.563Z,5.30
2019-03-15T19:05:20.043Z,5.30
2019-03-15T19:07:48.486Z,5.20
2019-03-15T19:10:17.157Z,5.20
2019-03-15T19:12:45.527Z,5.20
2019-03-15T19:15:15.441Z,5.20
2019-03-15T19:17:43.728Z,5.20
2019-03-15T19:20:13.423Z,5.20
2019-03-15T19:22:41.812Z,5.20
2019-03-15T19:25:11.473Z,5.10
2019-03-15T19:27:39.877Z,5.20
2019-03-15T19:30:16.223Z,5.20
2019-03-15T19:32:44.592Z,5.20
2019-03-15T19:35:13.176Z,5.20
2019-03-15T19:37:41.653Z,5.20
2019-03-15T19:40:14.989Z,5.30
2019-03-15T19:42:45.484Z,5.30
2019-03-15T19:45:15.075Z,5.30
2019-03-15T19:47:43.453Z,5.30
2019-03-15T19:50:16.447Z,5.20
2019-03-15T19:52:44.836Z,5.20
2019-03-15T19:55:15.350Z,5.20
2019-03-15T19:57:44.229Z,5.20
2019-03-15T20:00:18.054Z,5.20
2019-03-15T20:02:46.484Z,5.20
2019-03-15T20:05:14.876Z,5.20
2019-03-15T20:07:43.367Z,5.20
2019-03-15T20:10:17.109Z,5.30
2019-03-15T20:12:46.038Z,5.40
2019-03-15T20:15:15.701Z,5.40
2019-03-15T20:17:44.079Z,5.50
2019-03-15T20:20:16.667Z,5.50
2019-03-15T20:22:45.135Z,5.50
2019-03-15T20:25:14.968Z,5.60
2019-03-15T20:27:43.333Z,5.60
2019-03-15T20:30:26.286Z,5.60
2019-03-15T20:32:51.623Z,5.60
2019-03-15T20:35:19.973Z,5.60
2019-03-15T20:37:48.351Z,5.60
2019-03-15T20:40:16.742Z,5.60
2019-03-15T20:42:45.124Z,5.60
2019-03-15T20:45:24.466Z,5.70
2019-03-15T20:47:52.791Z,5.80
2019-03-15T20:50:21.125Z,5.70
2019-03-15T20:52:49.495Z,5.80
2019-03-15T20:55:17.885Z,5.70
2019-03-15T20:57:46.267Z,5.80
2019-03-15T21:00:17.467Z,5.80
2019-03-15T21:02:46.017Z,5.80
2019-03-15T21:05:14.347Z,5.80
2019-03-15T21:07:44.006Z,5.80
2019-03-15T21:10:15.630Z,5.80
2019-03-15T21:12:43.913Z,5.90
2019-03-15T21:15:13.847Z,5.90
2019-03-15T21:17:42.327Z,6.00
2019-03-15T21:20:18.501Z,6.00
2019-03-15T21:22:46.851Z,6.00
2019-03-15T21:25:15.203Z,6.00
2019-03-15T21:27:53.806Z,6.00
2019-03-15T21:30:15.716Z,6.10
2019-03-15T21:32:44.109Z,6.20
2019-03-15T21:35:12.911Z,6.20
2019-03-15T21:37:41.266Z,6.10
2019-03-15T21:40:11.393Z,6.00
2019-03-15T21:42:39.760Z,5.90
2019-03-15T21:45:10.282Z,5.80
2019-03-15T21:47:38.634Z,5.70
2019-03-15T21:50:21.600Z,5.60
2019-03-15T21:52:49.972Z,5.60
2019-03-15T21:55:18.447Z,5.50
2019-03-15T21:57:46.864Z,5.50
2019-03-15T22:00:19.267Z,5.40
2019-03-15T22:02:47.548Z,5.40
2019-03-15T22:05:15.912Z,5.40
2019-03-15T22:07:44.367Z,5.40
2019-03-15T22:10:18.858Z,5.40
2019-03-15T22:12:47.231Z,5.40
2019-03-15T22:15:15.603Z,5.40
2019-03-15T22:17:43.986Z,5.30
2019-03-15T22:20:16.689Z,5.30
2019-03-15T22:22:45.041Z,5.20
2019-03-15T22:25:13.413Z,5.20
2019-03-15T22:27:41.805Z,5.20
2019-03-15T22:30:12.419Z,5.30
2019-03-15T22:32:40.824Z,5.20
2019-03-15T22:35:09.236Z,5.30
2019-03-15T22:37:37.839Z,5.30
2019-03-15T22:40:09.060Z,5.20
2019-03-15T22:42:37.772Z,5.20
2019-03-15T22:45:08.479Z,5.20
2019-03-15T22:47:36.941Z,5.20
2019-03-15T22:50:07.504Z,5.10
2019-03-15T22:52:35.899Z,5.00
2019-03-15T22:55:05.078Z,5.00
2019-03-15T22:57:33.423Z,5.00
2019-03-15T23:00:01.748Z,4.90
2019-03-15T23:02:30.156Z,5.00
2019-03-15T23:04:58.534Z,5.00
2019-03-15T23:07:26.828Z,5.00
2019-03-15T23:09:55.205Z,4.90
2019-03-15T23:12:23.764Z,5.00
2019-03-15T23:14:52.118Z,5.00
2019-03-15T23:17:20.477Z,5.00
2019-03-15T23:19:48.890Z,5.00
2019-03-15T23:22:18.544Z,5.00
2019-03-15T23:24:46.852Z,4.90
2019-03-15T23:27:15.253Z,5.00
2019-03-15T23:29:43.640Z,5.00
2019-03-15T23:32:11.992Z,5.00
2019-03-15T23:34:40.346Z,5.00
2019-03-15T23:37:08.714Z,5.00
2019-03-15T23:39:37.066Z,5.00
2019-03-15T23:42:05.493Z,5.00
2019-03-15T23:44:33.938Z,5.00
2019-03-15T23:47:02.536Z,5.00
2019-03-15T23:49:31.306Z,5.00
2019-03-15T23:52:00.143Z,5.00
2019-03-15T23:54:28.697Z,5.00
2019-03-15T23:56:57.277Z,5.00
2019-03-15T23:59:25.810Z,5.00
